Time;durP1;ratioP1;P1;durP2;ratioP2;P2;SDS_P1;SDS_P2;PMS_P1;PMS_P2;Temp;Humidity;BMP_temperature;BMP_pressure;BME280_temperature;BME280_humidity;BME280_pressure;Samples;Min_cycle;Max_cycle;Signal;HPM_P1;HPM_P2
2022/05/27 00:01:13;;;;;;;13.30;5.03;;;13.70;99.90;;;;;;5024425;28;20493;-47
2022/05/27 00:03:39;;;;;;;10.18;4.15;;;13.70;99.90;;;;;;5003920;28;20365;-48
2022/05/27 00:06:11;;;;;;;11.40;3.75;;;13.70;99.90;;;;;;5023415;28;20416;-47
2022/05/27 00:08:37;;;;;;;12.68;4.18;;;13.70;99.90;;;;;;5004198;28;20038;-45
2022/05/27 00:11:10;;;;;;;13.75;3.85;;;13.80;99.90;;;;;;5022443;28;20049;-46
2022/05/27 00:13:37;;;;;;;12.40;4.70;;;13.80;99.90;;;;;;5025523;28;20376;-48
2022/05/27 00:16:03;;;;;;;12.57;4.00;;;13.80;99.90;;;;;;5016726;28;20079;-48
2022/05/27 00:18:29;;;;;;;9.35;3.88;;;13.80;99.90;;;;;;5025324;28;20496;-45
2022/05/27 00:21:00;;;;;;;13.77;4.32;;;13.80;99.90;;;;;;5026697;28;20092;-48
2022/05/27 00:23:26;;;;;;;13.40;3.92;;;13.80;99.90;;;;;;5026351;28;20503;-46
2022/05/27 00:25:52;;;;;;;11.90;4.57;;;13.80;99.90;;;;;;5019512;28;20465;-46
2022/05/27 00:28:21;;;;;;;10.07;3.70;;;13.80;99.90;;;;;;5044622;28;20053;-49
2022/05/27 00:30:47;;;;;;;15.85;4.20;;;13.80;99.90;;;;;;5025489;28;20185;-48
2022/05/27 00:33:13;;;;;;;22.05;4.85;;;13.70;99.90;;;;;;5044205;28;20071;-46
2022/05/27 00:35:39;;;;;;;20.70;4.38;;;13.70;99.90;;;;;;5044568;28;20049;-45
2022/05/27 00:38:05;;;;;;;15.80;3.90;;;13.70;99.90;;;;;;5023386;28;20049;-45
2022/05/27 00:40:43;;;;;;;19.83;3.95;;;13.60;99.90;;;;;;5036823;28;20500;-46
2022/05/27 00:43:10;;;;;;;17.40;3.90;;;13.50;99.90;;;;;;5042368;28;20048;-48
2022/05/27 00:45:38;;;;;;;15.07;3.53;;;13.50;99.90;;;;;;5043375;28;20044;-48
2022/05/27 00:48:07;;;;;;;18.67;4.00;;;13.40;99.90;;;;;;5024897;28;20537;-46
2022/05/27 00:50:37;;;;;;;13.52;4.22;;;13.30;99.90;;;;;;5044466;28;20049;-48
2022/05/27 00:53:09;;;;;;;19.65;4.43;;;13.30;99.90;;;;;;5024871;28;20970;-47
2022/05/27 00:55:41;;;;;;;17.58;4.88;;;13.30;99.90;;;;;;5021074;28;20053;-46
2022/05/27 00:58:30;;;;;;;15.70;4.47;;;13.30;99.90;;;;;;5042330;28;20049;-44
2022/05/27 01:00:56;;;;;;;14.25;3.88;;;13.20;99.90;;;;;;5037721;28;20096;-50
2022/05/27 01:03:31;;;;;;;15.15;4.55;;;13.10;99.90;;;;;;5026296;28;20135;-48
2022/05/27 01:05:56;;;;;;;20.23;4.18;;;13.10;99.90;;;;;;5042117;28;20262;-47
2022/05/27 01:08:26;;;;;;;23.55;4.70;;;13.10;99.90;;;;;;5043220;28;20484;-49
2022/05/27 01:11:40;;;;;;;19.80;4.55;;;13.00;99.90;;;;;;5043440;28;20131;-47
2022/05/27 01:14:16;;;;;;;;;;;13.10;99.90;;;;;;5042615;28;20056;-47
2022/05/27 01:16:53;;;;;;;18.60;4.18;;;13.00;99.90;;;;;;5042676;28;20405;-49
2022/05/27 01:23:11;;;;;;;19.08;4.22;;;13.00;99.90;;;;;;4942773;29;20324;-48
2022/05/27 01:26:00;;;;;;;18.13;4.30;;;13.00;99.90;;;;;;4903930;29;20056;-48
2022/05/27 01:29:23;;;;;;;26.15;4.80;;;12.90;99.90;;;;;;4888489;29;20052;-47
2022/05/27 01:31:57;;;;;;;20.85;4.20;;;12.80;99.90;;;;;;4861983;29;20060;-48
2022/05/27 01:34:44;;;;;;;21.00;4.10;;;12.80;99.90;;;;;;4862768;29;20513;-45
2022/05/27 01:37:54;;;;;;;15.18;3.72;;;12.70;99.90;;;;;;4849346;29;20478;-46
2022/05/27 01:40:57;;;;;;;18.58;4.32;;;12.70;99.90;;;;;;4792028;29;20077;-45
2022/05/27 01:43:42;;;;;;;22.05;4.82;;;12.60;99.90;;;;;;4691854;30;20057;-47
2022/05/27 01:46:14;;;;;;;18.80;3.80;;;12.50;99.90;;;;;;4770613;29;20203;-46
2022/05/27 01:49:19;;;;;;;19.08;5.90;;;12.50;99.90;;;;;;4775218;29;20546;-47
2022/05/27 01:51:58;;;;;;;19.48;4.57;;;12.50;99.90;;;;;;4786236;29;20527;-46
2022/05/27 01:54:58;;;;;;;16.63;4.40;;;12.50;99.90;;;;;;4789023;29;20062;-47
2022/05/27 01:57:52;;;;;;;16.23;4.35;;;12.50;99.90;;;;;;4720972;30;20486;-46
2022/05/27 02:00:25;;;;;;;25.30;5.50;;;12.40;99.90;;;;;;4743070;30;20570;-47
2022/05/27 02:03:25;;;;;;;18.08;4.03;;;12.40;99.90;;;;;;4821927;29;20480;-46
2022/05/27 02:06:21;;;;;;;22.30;4.43;;;12.50;99.90;;;;;;4862440;29;20072;-47
2022/05/27 02:09:14;;;;;;;17.58;5.00;;;12.50;99.90;;;;;;4866206;29;20100;-45
2022/05/27 02:11:43;;;;;;;21.23;4.90;;;12.40;99.90;;;;;;4938009;28;20058;-45
2022/05/27 02:14:23;;;;;;;16.38;4.97;;;12.40;99.90;;;;;;4962516;28;20090;-46
2022/05/27 02:16:55;;;;;;;23.48;4.50;;;12.30;99.90;;;;;;4963426;28;20063;-47
2022/05/27 02:19:22;;;;;;;21.88;4.53;;;12.30;99.90;;;;;;4954312;28;20054;-48
2022/05/27 02:21:59;;;;;;;21.33;5.80;;;12.20;99.90;;;;;;4928736;28;20481;-49
2022/05/27 02:24:37;;;;;;;19.15;5.10;;;12.30;99.90;;;;;;4959581;28;20699;-47
2022/05/27 02:27:21;;;;;;;15.30;4.25;;;12.20;99.90;;;;;;4944574;28;20058;-50
2022/05/27 02:29:51;;;;;;;17.98;4.90;;;12.20;99.90;;;;;;4943200;28;20042;-46
2022/05/27 02:32:26;;;;;;;17.98;4.35;;;12.20;99.90;;;;;;4960340;28;20074;-45
2022/05/27 02:35:09;;;;;;;21.10;5.20;;;12.20;99.90;;;;;;5004462;28;20065;-46
2022/05/27 02:37:49;;;;;;;22.88;5.32;;;12.20;99.90;;;;;;5022537;28;20053;-45
2022/05/27 02:40:36;;;;;;;27.13;4.72;;;12.20;99.90;;;;;;5006485;28;20041;-46
2022/05/27 02:43:39;;;;;;;20.23;4.72;;;12.20;99.90;;;;;;5033794;28;20442;-44
2022/05/27 02:46:39;;;;;;;15.80;5.85;;;12.20;99.90;;;;;;5023411;28;20137;-44
2022/05/27 02:49:07;;;;;;;19.35;4.00;;;12.20;99.90;;;;;;5042271;28;20045;-49
2022/05/27 02:52:12;;;;;;;18.00;5.72;;;12.10;99.90;;;;;;5020194;28;20077;-48
2022/05/27 02:55:03;;;;;;;18.17;4.75;;;12.10;99.90;;;;;;5017798;28;20069;-46
2022/05/27 02:57:43;;;;;;;20.73;5.40;;;12.10;99.90;;;;;;5019316;28;20110;-43
2022/05/27 03:00:21;;;;;;;21.80;6.30;;;12.10;99.90;;;;;;5040481;28;20514;-46
2022/05/27 03:02:52;;;;;;;21.17;5.88;;;12.20;99.90;;;;;;5024035;28;20057;-49
2022/05/27 03:05:27;;;;;;;19.77;5.13;;;12.10;99.90;;;;;;5022797;28;20064;-44
2022/05/27 03:08:18;;;;;;;17.98;5.35;;;12.10;99.90;;;;;;5040437;28;20084;-46
2022/05/27 03:11:21;;;;;;;16.90;4.85;;;12.20;99.90;;;;;;5018989;28;20063;-45
2022/05/27 03:14:12;;;;;;;16.83;5.20;;;12.10;99.90;;;;;;5022240;28;20067;-46
2022/05/27 03:16:50;;;;;;;14.93;4.35;;;12.20;99.90;;;;;;5036847;28;20049;-47
2022/05/27 03:19:22;;;;;;;14.70;5.32;;;12.20;99.90;;;;;;5021785;28;20092;-46
2022/05/27 03:22:18;;;;;;;16.58;4.65;;;12.20;99.90;;;;;;5022829;28;20041;-47
2022/05/27 03:24:53;;;;;;;19.95;5.05;;;12.20;99.90;;;;;;4955695;28;20445;-46
2022/05/27 03:27:38;;;;;;;18.50;4.70;;;12.20;99.90;;;;;;4958599;28;20103;-44
2022/05/27 03:30:17;;;;;;;19.65;4.45;;;12.10;99.90;;;;;;4956252;28;20477;-45
2022/05/27 03:32:50;;;;;;;18.85;4.40;;;12.10;99.90;;;;;;4959788;28;20122;-45
2022/05/27 03:35:30;;;;;;;17.20;4.22;;;12.10;99.90;;;;;;4959307;28;20500;-46
2022/05/27 03:38:14;;;;;;;18.15;4.57;;;12.00;99.90;;;;;;4941451;28;20158;-45
2022/05/27 03:41:04;;;;;;;22.58;4.35;;;12.10;99.90;;;;;;4937886;28;20070;-47
2022/05/27 03:43:35;;;;;;;17.85;4.13;;;12.10;99.90;;;;;;4940038;28;20150;-46
2022/05/27 03:46:02;;;;;;;18.10;4.50;;;12.10;99.90;;;;;;4958293;28;20078;-46
2022/05/27 03:48:31;;;;;;;14.88;4.07;;;12.10;99.90;;;;;;4935922;29;20055;-46
2022/05/27 03:51:19;;;;;;;16.85;4.30;;;12.10;99.90;;;;;;4952221;28;20198;-48
2022/05/27 03:54:03;;;;;;;16.88;4.28;;;12.10;99.90;;;;;;4958744;28;20527;-45
2022/05/27 03:56:34;;;;;;;16.05;3.72;;;12.10;99.90;;;;;;4958950;28;20054;-46
2022/05/27 03:59:00;;;;;;;16.77;4.35;;;12.20;99.90;;;;;;4958604;28;20061;-47
2022/05/27 04:01:29;;;;;;;19.08;5.43;;;12.20;99.90;;;;;;4987869;28;20415;-48
2022/05/27 04:04:03;;;;;;;15.20;3.90;;;12.20;99.90;;;;;;5006728;28;20080;-45
2022/05/27 04:06:30;;;;;;;13.55;3.70;;;12.20;99.90;;;;;;5041166;28;20140;-46
2022/05/27 04:08:57;;;;;;;14.48;4.35;;;12.20;99.90;;;;;;5040812;28;20365;-47
2022/05/27 04:11:24;;;;;;;15.63;3.60;;;12.30;99.90;;;;;;5019034;28;20144;-47
2022/05/27 04:13:50;;;;;;;16.00;3.97;;;12.30;99.90;;;;;;5042342;28;20124;-48
2022/05/27 04:16:16;;;;;;;16.20;3.17;;;12.40;99.90;;;;;;5015945;28;20053;-45
2022/05/27 04:18:42;;;;;;;12.82;3.33;;;12.40;99.90;;;;;;5044148;28;20064;-46
2022/05/27 04:21:08;;;;;;;13.52;3.53;;;12.50;99.90;;;;;;5022978;28;20049;-46
2022/05/27 04:23:35;;;;;;;11.60;2.92;;;12.50;99.90;;;;;;5022956;28;20557;-46
2022/05/27 04:26:01;;;;;;;15.85;3.47;;;12.40;99.90;;;;;;5043983;28;20508;-44
2022/05/27 04:28:27;;;;;;;15.13;4.15;;;12.50;99.90;;;;;;5026262;28;20468;-46
2022/05/27 04:30:52;;;;;;;14.85;3.97;;;12.50;99.90;;;;;;5043523;28;20045;-45
2022/05/27 04:33:18;;;;;;;19.25;4.35;;;12.50;99.90;;;;;;5042225;28;20131;-44
2022/05/27 04:35:45;;;;;;;20.17;3.60;;;12.50;99.90;;;;;;5042561;28;20063;-50
2022/05/27 04:38:11;;;;;;;15.77;3.75;;;12.50;99.90;;;;;;5041134;28;20084;-46
2022/05/27 04:40:36;;;;;;;12.85;4.15;;;12.50;99.90;;;;;;5038637;28;20052;-45
2022/05/27 04:43:02;;;;;;;15.43;3.38;;;12.50;99.90;;;;;;5026187;28;20103;-44
2022/05/27 04:45:29;;;;;;;15.95;3.45;;;12.50;99.90;;;;;;5022652;28;20710;-49
2022/05/27 04:47:55;;;;;;;16.38;3.63;;;12.50;99.90;;;;;;5023261;28;20045;-47
2022/05/27 04:50:22;;;;;;;14.85;3.75;;;12.60;99.90;;;;;;5023482;28;20411;-46
2022/05/27 04:52:47;;;;;;;13.23;3.65;;;12.60;99.90;;;;;;5020624;28;20179;-47
2022/05/27 04:55:16;;;;;;;11.60;3.13;;;12.60;99.90;;;;;;5021888;28;20495;-46
2022/05/27 04:57:49;;;;;;;16.02;2.92;;;12.50;99.90;;;;;;5022094;28;20046;-54
2022/05/27 05:00:30;;;;;;;16.15;4.05;;;12.60;99.90;;;;;;5004389;28;20049;-47
2022/05/27 05:02:56;;;;;;;18.17;3.80;;;12.70;99.90;;;;;;5023054;28;20084;-47
2022/05/27 05:05:27;;;;;;;13.05;3.55;;;13.10;99.90;;;;;;5022365;28;20038;-48
2022/05/27 05:08:00;;;;;;;11.00;3.13;;;13.80;99.90;;;;;;5022206;28;20128;-48
2022/05/27 05:10:30;;;;;;;14.77;3.78;;;14.10;99.90;;;;;;5021794;28;20057;-50
2022/05/27 05:12:56;;;;;;;12.75;3.60;;;14.30;99.90;;;;;;5016184;28;20053;-47
2022/05/27 05:15:24;;;;;;;13.45;3.13;;;14.50;99.90;;;;;;5022062;28;20412;-44
2022/05/27 05:17:49;;;;;;;17.40;4.38;;;15.20;99.90;;;;;;5021422;28;20382;-45
2022/05/27 05:20:18;;;;;;;15.60;3.78;;;16.50;99.90;;;;;;5021185;28;20053;-47
2022/05/27 05:22:45;;;;;;;11.43;2.90;;;18.00;99.90;;;;;;5021190;28;20067;-47
2022/05/27 05:25:12;;;;;;;12.07;4.03;;;19.30;99.90;;;;;;5020901;28;20072;-45
2022/05/27 05:27:40;;;;;;;12.02;3.80;;;20.20;99.90;;;;;;5022158;28;20068;-48
2022/05/27 05:30:16;;;;;;;12.73;3.50;;;20.60;99.90;;;;;;5021438;28;20057;-47
2022/05/27 05:32:42;;;;;;;12.93;4.57;;;21.20;99.90;;;;;;5023461;28;20085;-48
2022/05/27 05:35:09;;;;;;;10.57;2.97;;;20.80;99.90;;;;;;5022082;28;20530;-46
2022/05/27 05:37:35;;;;;;;12.35;3.70;;;19.70;99.90;;;;;;5018649;28;20501;-44
2022/05/27 05:40:01;;;;;;;11.15;3.63;;;19.30;99.90;;;;;;5021478;28;20429;-47
2022/05/27 05:42:27;;;;;;;14.50;4.05;;;18.70;99.90;;;;;;5022055;28;20053;-46
2022/05/27 05:44:55;;;;;;;15.05;4.40;;;18.00;99.90;;;;;;5025510;28;20075;-50
2022/05/27 05:47:21;;;;;;;13.57;3.50;;;17.40;99.90;;;;;;5042816;28;20098;-48
2022/05/27 05:49:47;;;;;;;12.25;3.70;;;17.00;99.90;;;;;;5042119;28;20430;-45
2022/05/27 05:52:13;;;;;;;15.48;4.25;;;18.30;99.90;;;;;;5042876;28;20041;-46
2022/05/27 05:54:39;;;;;;;9.15;3.63;;;19.50;99.90;;;;;;5043960;28;20048;-48
2022/05/27 05:57:05;;;;;;;12.13;3.75;;;19.20;99.90;;;;;;5043804;28;20094;-46
2022/05/27 05:59:33;;;;;;;16.67;4.15;;;18.90;99.90;;;;;;5045549;28;20475;-47
2022/05/27 06:02:00;;;;;;;13.48;4.18;;;19.30;99.90;;;;;;5042282;28;20502;-46
2022/05/27 06:04:31;;;;;;;10.57;3.45;;;20.10;99.30;;;;;;5039134;28;20071;-46
2022/05/27 06:07:04;;;;;;;16.38;4.13;;;21.50;98.80;;;;;;5023049;28;20077;-48
2022/05/27 06:09:33;;;;;;;;;;;22.30;97.20;;;;;;5042456;28;20060;-45
2022/05/27 06:12:04;;;;;;;10.40;4.22;;;22.10;96.20;;;;;;5041176;28;19931;-46
2022/05/27 06:14:34;;;;;;;15.00;3.83;;;22.60;96.40;;;;;;5041558;28;20044;-47
2022/05/27 06:17:02;;;;;;;13.05;4.32;;;23.30;94.70;;;;;;5040540;28;20098;-46
2022/05/27 06:19:28;;;;;;;12.65;4.15;;;23.60;93.10;;;;;;5013393;28;20046;-45
2022/05/27 06:21:53;;;;;;;15.55;4.25;;;23.70;91.80;;;;;;5022866;28;20060;-46
2022/05/27 06:24:19;;;;;;;11.02;3.75;;;23.40;91.90;;;;;;5039934;28;20111;-46
2022/05/27 06:26:45;;;;;;;13.18;3.95;;;23.60;90.90;;;;;;5041548;28;20602;-47
2022/05/27 06:34:40;;;;;;;9.50;3.25;;;25.10;84.20;;;;;;5041304;28;20053;-46
2022/05/27 06:37:12;;;;;;;11.57;4.32;;;25.00;82.30;;;;;;5037925;28;20056;-50
2022/05/27 06:39:40;;;;;;;14.85;4.57;;;25.50;81.70;;;;;;5033233;28;20084;-47
2022/05/27 06:42:08;;;;;;;13.15;4.35;;;25.80;79.90;;;;;;5023072;28;20064;-47
2022/05/27 06:44:35;;;;;;;14.52;4.38;;;25.90;80.50;;;;;;5023131;28;20483;-50
2022/05/27 06:47:01;;;;;;;13.85;3.95;;;26.00;80.10;;;;;;5040374;28;20053;-48
2022/05/27 06:49:27;;;;;;;15.55;4.45;;;25.60;75.30;;;;;;5041160;28;20522;-48
2022/05/27 06:51:53;;;;;;;11.27;3.15;;;24.30;76.90;;;;;;5041840;28;20533;-48
2022/05/27 06:54:19;;;;;;;7.85;3.78;;;23.50;77.10;;;;;;5022844;28;20053;-48
2022/05/27 06:56:45;;;;;;;11.35;3.58;;;23.50;77.30;;;;;;5041595;28;20420;-46
2022/05/27 06:59:12;;;;;;;8.93;3.72;;;24.10;78.20;;;;;;5041039;28;20036;-46
2022/05/27 07:01:38;;;;;;;13.60;3.78;;;24.70;78.50;;;;;;5041537;28;20049;-50
2022/05/27 07:04:07;;;;;;;11.60;3.67;;;25.10;76.90;;;;;;5024227;28;20049;-47
2022/05/27 07:06:37;;;;;;;14.60;4.10;;;24.90;75.30;;;;;;5023563;28;20474;-48
2022/05/27 07:09:05;;;;;;;11.85;3.95;;;24.70;76.90;;;;;;5023747;28;20102;-47
2022/05/27 07:11:31;;;;;;;12.55;4.72;;;24.00;78.20;;;;;;5040158;28;20056;-47
2022/05/27 07:13:57;;;;;;;15.85;4.25;;;23.30;78.70;;;;;;5042710;28;20111;-48
2022/05/27 07:16:23;;;;;;;10.70;3.72;;;22.10;78.60;;;;;;5041273;28;20179;-46
2022/05/27 07:18:48;;;;;;;12.45;4.28;;;21.60;80.50;;;;;;5042097;28;20045;-47
2022/05/27 07:21:14;;;;;;;12.88;3.65;;;21.40;82.20;;;;;;5041146;28;20052;-45
2022/05/27 07:23:40;;;;;;;14.27;4.45;;;21.10;82.50;;;;;;5040008;28;20555;-47
2022/05/27 07:26:06;;;;;;;8.98;3.22;;;21.00;81.60;;;;;;5039688;28;20083;-44
2022/05/27 07:28:32;;;;;;;13.88;3.42;;;20.80;80.90;;;;;;5041292;28;20099;-45
2022/05/27 07:31:01;;;;;;;11.98;3.80;;;20.50;80.80;;;;;;5038615;28;20064;-46
2022/05/27 07:33:27;;;;;;;10.40;3.30;;;20.30;80.50;;;;;;5038308;28;20463;-44
2022/05/27 07:35:53;;;;;;;13.73;4.10;;;20.30;83.30;;;;;;5040836;28;20085;-45
2022/05/27 07:38:19;;;;;;;16.42;4.40;;;20.40;82.00;;;;;;5040247;28;20486;-47
2022/05/27 07:40:45;;;;;;;17.75;3.50;;;20.00;82.90;;;;;;5039894;28;20045;-47
2022/05/27 07:43:12;;;;;;;10.18;3.13;;;19.90;81.90;;;;;;5039767;28;20944;-47
2022/05/27 07:45:40;;;;;;;13.23;4.68;;;20.10;83.00;;;;;;5040082;28;20057;-45
2022/05/27 07:48:06;;;;;;;9.93;3.10;;;20.20;83.10;;;;;;5043409;28;20175;-49
2022/05/27 07:50:33;;;;;;;11.65;3.42;;;19.90;82.50;;;;;;5025793;28;20522;-46
2022/05/27 07:52:58;;;;;;;9.70;3.40;;;19.80;81.90;;;;;;5044652;28;20056;-45
2022/05/27 07:55:24;;;;;;;12.90;3.90;;;19.70;83.40;;;;;;5044213;28;20080;-46
2022/05/27 07:57:53;;;;;;;11.00;3.90;;;19.60;83.30;;;;;;5044351;28;20511;-47
2022/05/27 08:00:23;;;;;;;12.95;4.63;;;19.70;83.00;;;;;;5039942;28;20463;-47
2022/05/27 08:02:48;;;;;;;16.83;4.57;;;19.10;84.00;;;;;;5044003;28;20061;-44
2022/05/27 08:05:18;;;;;;;12.55;3.40;;;19.00;86.00;;;;;;5043560;28;20454;-47
2022/05/27 08:07:45;;;;;;;17.20;4.28;;;18.90;84.80;;;;;;5043640;28;20061;-47
2022/05/27 08:10:12;;;;;;;12.05;4.18;;;18.90;85.60;;;;;;5043326;28;20395;-45
2022/05/27 08:12:39;;;;;;;16.17;3.90;;;18.90;84.70;;;;;;5041718;28;20484;-45
2022/05/27 08:15:05;;;;;;;9.93;3.58;;;18.90;84.40;;;;;;5043475;28;20122;-47
2022/05/27 08:17:31;;;;;;;11.98;3.58;;;18.50;85.30;;;;;;5043346;28;21123;-47
2022/05/27 08:19:57;;;;;;;14.05;4.43;;;18.80;87.00;;;;;;5044137;28;20505;-45
2022/05/27 08:22:22;;;;;;;14.35;4.13;;;18.70;86.30;;;;;;5044889;28;20459;-45
2022/05/27 08:24:48;;;;;;;11.38;3.80;;;18.90;87.10;;;;;;5043555;28;20541;-47
2022/05/27 08:27:14;;;;;;;13.40;4.03;;;19.00;86.90;;;;;;5043425;28;20055;-46
2022/05/27 08:29:40;;;;;;;16.15;4.05;;;19.30;87.50;;;;;;5024590;28;20049;-47
2022/05/27 08:32:06;;;;;;;9.27;3.42;;;19.20;86.80;;;;;;5045091;28;20048;-46
2022/05/27 08:40:29;;;;;;;11.10;3.05;;;18.50;86.20;;;;;;5044486;28;20052;-46
2022/05/27 08:43:07;;;;;;;14.00;3.30;;;18.80;88.70;;;;;;4975528;28;20662;-46
2022/05/27 08:45:44;;;;;;;12.88;4.05;;;18.70;86.80;;;;;;4970403;28;20047;-45
2022/05/27 08:48:11;;;;;;;14.27;3.63;;;18.80;88.10;;;;;;4960934;28;20062;-45
2022/05/27 08:50:55;;;;;;;10.32;3.55;;;18.40;87.00;;;;;;4962235;28;20438;-46
2022/05/27 08:53:21;;;;;;;13.15;3.47;;;18.30;88.00;;;;;;4942851;29;20419;-49
2022/05/27 09:01:29;;;;;;;11.93;3.00;;;18.00;89.90;;;;;;4962614;28;20561;-44
2022/05/27 09:04:16;;;;;;;10.80;3.20;;;18.30;90.70;;;;;;4945897;28;20525;-45
2022/05/27 09:06:51;;;;;;;18.42;3.60;;;18.60;89.00;;;;;;4961900;28;20061;-47
2022/05/27 09:09:36;;;;;;;11.63;3.47;;;19.10;90.80;;;;;;4964134;28;20428;-46
2022/05/27 09:12:23;;;;;;;9.27;3.67;;;19.00;87.90;;;;;;4962550;28;20133;-45
2022/05/27 09:15:14;;;;;;;13.57;3.45;;;18.70;85.90;;;;;;4958678;28;20050;-45
2022/05/27 09:17:54;;;;;;;12.30;3.60;;;18.60;88.10;;;;;;4980054;28;20098;-45
2022/05/27 09:20:45;;;;;;;11.15;3.63;;;18.90;90.00;;;;;;5014384;28;20471;-47
2022/05/27 09:23:36;;;;;;;12.00;4.03;;;19.00;88.50;;;;;;5042567;28;20045;-46
2022/05/27 09:26:19;;;;;;;8.25;3.17;;;18.70;88.60;;;;;;5023254;28;20052;-46
2022/05/27 09:29:22;;;;;;;17.23;4.07;;;18.60;88.50;;;;;;5022943;28;20045;-45
2022/05/27 09:32:19;;;;;;;8.40;2.78;;;18.60;87.20;;;;;;4942614;29;20063;-46
2022/05/27 09:34:47;;;;;;;12.60;3.13;;;18.70;88.70;;;;;;4938411;29;20529;-46
2022/05/27 09:37:31;;;;;;;11.55;3.63;;;18.70;86.60;;;;;;4958849;28;20050;-46
2022/05/27 09:40:04;;;;;;;8.95;2.95;;;18.60;87.40;;;;;;4960737;28;20107;-46
2022/05/27 09:42:54;;;;;;;12.63;3.70;;;18.50;86.90;;;;;;4961562;28;20585;-46
2022/05/27 09:45:20;;;;;;;14.00;4.05;;;18.60;87.10;;;;;;4960601;28;20054;-46
2022/05/27 09:47:46;;;;;;;9.65;3.03;;;18.70;88.00;;;;;;4960851;28;20138;-50
2022/05/27 09:50:14;;;;;;;12.68;3.38;;;18.40;86.90;;;;;;4961113;28;20057;-46
2022/05/27 09:52:42;;;;;;;11.35;3.08;;;18.20;88.40;;;;;;4962725;28;20093;-46
2022/05/27 09:55:27;;;;;;;12.25;3.40;;;17.90;89.50;;;;;;4948695;28;21079;-46
2022/05/27 09:58:01;;;;;;;14.68;3.88;;;18.00;89.70;;;;;;4961785;28;20065;-47
2022/05/27 10:00:35;;;;;;;13.30;3.58;;;18.20;88.50;;;;;;4961086;28;20087;-45
2022/05/27 10:03:26;;;;;;;12.48;3.60;;;18.20;88.20;;;;;;4961350;28;20084;-47
2022/05/27 10:05:57;;;;;;;17.52;3.83;;;17.80;88.90;;;;;;4956089;28;20042;-45
2022/05/27 10:08:53;;;;;;;12.32;3.40;;;17.70;90.40;;;;;;5013435;28;20065;-46
2022/05/27 10:11:21;;;;;;;12.88;3.65;;;17.60;90.20;;;;;;5040622;28;20538;-45
2022/05/27 10:13:49;;;;;;;14.25;3.70;;;17.50;90.40;;;;;;5042404;28;20179;-47
2022/05/27 10:16:22;;;;;;;13.55;3.22;;;17.40;90.00;;;;;;5023327;28;20059;-45
2022/05/27 10:19:03;;;;;;;11.30;3.50;;;17.30;90.60;;;;;;5041798;28;20095;-45
2022/05/27 10:21:30;;;;;;;10.90;3.45;;;17.70;91.00;;;;;;5041551;28;20087;-45
2022/05/27 10:24:17;;;;;;;13.85;4.00;;;18.20;91.50;;;;;;5042633;28;20075;-48
2022/05/27 10:26:44;;;;;;;11.63;3.20;;;18.30;90.90;;;;;;5041480;28;20045;-46
2022/05/27 10:29:15;;;;;;;8.75;2.83;;;18.30;89.90;;;;;;5041678;28;20572;-46
2022/05/27 10:31:53;;;;;;;8.88;3.30;;;18.40;88.00;;;;;;5041314;28;20053;-45
2022/05/27 10:34:43;;;;;;;13.80;3.85;;;18.30;88.60;;;;;;5041086;28;20341;-45
2022/05/27 10:37:22;;;;;;;10.70;3.35;;;18.10;88.20;;;;;;5040280;28;20561;-45
2022/05/27 10:40:05;;;;;;;9.38;3.35;;;17.90;90.60;;;;;;5032856;28;20057;-45
2022/05/27 10:42:41;;;;;;;12.95;4.43;;;17.60;90.90;;;;;;5023682;28;20443;-48
2022/05/27 10:45:22;;;;;;;13.50;4.40;;;17.30;90.90;;;;;;5041548;28;20103;-44
2022/05/27 10:48:11;;;;;;;10.95;3.20;;;17.20;91.30;;;;;;5018668;28;20072;-46
2022/05/27 10:50:51;;;;;;;16.08;4.03;;;16.90;92.10;;;;;;5039936;28;20076;-48
2022/05/27 10:53:44;;;;;;;10.80;3.42;;;17.10;92.00;;;;;;5034373;28;20060;-45
2022/05/27 10:56:19;;;;;;;17.38;3.50;;;17.40;92.30;;;;;;5034500;28;20515;-46
2022/05/27 11:02:19;;;;;;;12.32;3.53;;;17.90;91.10;;;;;;5038152;28;20056;-45
2022/05/27 11:05:06;;;;;;;10.73;3.17;;;18.00;92.30;;;;;;5042368;28;20111;-45
2022/05/27 11:07:38;;;;;;;11.55;3.38;;;18.00;90.70;;;;;;5035294;28;20045;-46
2022/05/27 11:10:37;;;;;;;13.07;3.65;;;17.80;90.30;;;;;;5040920;28;20499;-46
2022/05/27 11:16:17;;;;;;;15.75;4.15;;;17.70;91.50;;;;;;5043771;28;20407;-45
2022/05/27 11:19:07;;;;;;;11.40;3.95;;;17.40;91.80;;;;;;5042477;28;20045;-47
2022/05/27 11:21:51;;;;;;;14.75;3.75;;;17.40;92.20;;;;;;5034452;28;20045;-48
2022/05/27 11:24:38;;;;;;;14.40;4.10;;;17.40;92.70;;;;;;5027665;28;20128;-45
2022/05/27 11:27:22;;;;;;;13.73;3.30;;;17.60;92.10;;;;;;5019760;28;20452;-46
2022/05/27 11:29:54;;;;;;;13.85;4.43;;;17.60;91.10;;;;;;5040733;28;20091;-45
2022/05/27 11:32:33;;;;;;;14.23;3.13;;;17.40;90.90;;;;;;5019549;28;20096;-45
2022/05/27 11:35:43;;;;;;;16.42;4.35;;;17.30;91.30;;;;;;5013742;28;20041;-45
2022/05/27 11:38:30;;;;;;;14.48;3.92;;;17.50;92.60;;;;;;5027172;28;20060;-46
2022/05/27 11:41:15;;;;;;;14.98;3.97;;;17.80;92.30;;;;;;5043417;28;20151;-45
2022/05/27 11:44:15;;;;;;;15.82;4.30;;;17.80;92.40;;;;;;5025629;28;20148;-47
2022/05/27 11:46:58;;;;;;;14.10;4.35;;;17.90;92.10;;;;;;4943315;29;20082;-47
2022/05/27 11:49:35;;;;;;;14.95;3.58;;;17.60;92.20;;;;;;4945796;28;20063;-43
2022/05/27 11:52:34;;;;;;;14.40;4.47;;;17.30;92.00;;;;;;4948356;28;20094;-46
2022/05/27 11:55:01;;;;;;;18.25;4.07;;;17.30;92.90;;;;;;4926282;29;20062;-43
2022/05/27 11:57:36;;;;;;;14.45;4.40;;;17.20;92.40;;;;;;4942684;29;20226;-46
2022/05/27 12:00:10;;;;;;;11.02;3.75;;;17.20;92.40;;;;;;4942186;29;20553;-46
2022/05/27 12:03:10;;;;;;;13.80;3.85;;;17.40;93.10;;;;;;4945931;28;20043;-45
2022/05/27 12:05:43;;;;;;;12.80;4.05;;;17.20;93.30;;;;;;4925641;29;20150;-47
2022/05/27 12:08:28;;;;;;;12.68;3.78;;;17.40;93.50;;;;;;4946166;28;20047;-46
2022/05/27 12:11:05;;;;;;;14.02;3.70;;;17.70;92.60;;;;;;4942316;29;20056;-45
2022/05/27 12:14:01;;;;;;;12.57;4.22;;;17.50;92.00;;;;;;4946432;28;20063;-45
2022/05/27 12:16:31;;;;;;;18.63;4.20;;;17.70;93.50;;;;;;4942489;29;20063;-44
2022/05/27 12:18:59;;;;;;;17.77;4.10;;;18.20;94.40;;;;;;4943374;29;20495;-46
2022/05/27 12:21:30;;;;;;;15.27;4.55;;;18.20;93.30;;;;;;4943381;29;20061;-46
2022/05/27 12:24:09;;;;;;;15.65;4.63;;;18.00;92.50;;;;;;4998292;28;20060;-46
2022/05/27 12:26:37;;;;;;;15.25;4.72;;;17.80;92.50;;;;;;5042635;28;20060;-45
2022/05/27 12:29:08;;;;;;;13.23;4.32;;;17.60;93.30;;;;;;5040617;28;20056;-46
2022/05/27 12:31:38;;;;;;;16.20;4.30;;;17.40;92.50;;;;;;5019141;28;20136;-49
2022/05/27 12:34:25;;;;;;;18.90;5.20;;;17.60;93.20;;;;;;5032663;28;20084;-45
2022/05/27 12:36:52;;;;;;;18.15;4.50;;;17.30;93.00;;;;;;5041178;28;20092;-45
2022/05/27 12:39:27;;;;;;;13.75;4.40;;;17.20;93.50;;;;;;5020907;28;20041;-48
2022/05/27 12:42:17;;;;;;;11.55;4.05;;;17.20;93.70;;;;;;5038658;28;20041;-46
2022/05/27 12:44:44;;;;;;;13.88;4.03;;;17.20;93.50;;;;;;5043947;28;20053;-45
2022/05/27 12:47:35;;;;;;;15.48;3.90;;;17.20;94.00;;;;;;5044352;28;20057;-45
2022/05/27 12:50:15;;;;;;;12.98;3.95;;;17.20;94.20;;;;;;5043284;28;20052;-45
2022/05/27 12:52:49;;;;;;;15.75;4.50;;;17.10;93.20;;;;;;5044039;28;20060;-46
2022/05/27 13:00:55;;;;;;;14.85;4.15;;;17.00;93.70;;;;;;5042199;28;20492;-45
2022/05/27 13:01:32;;;;;;;10.65;3.60;;;17.30;93.40;;;;;;5043479;28;20391;-45
2022/05/27 13:04:01;;;;;;;15.23;4.43;;;17.30;93.30;;;;;;5040675;28;20052;-46
2022/05/27 13:06:35;;;;;;;20.88;5.13;;;17.20;94.30;;;;;;5043091;28;20040;-47
2022/05/27 13:09:41;;;;;;;14.75;3.72;;;17.40;94.30;;;;;;5043317;28;20041;-43
2022/05/27 13:12:52;;;;;;;12.20;3.85;;;17.50;93.80;;;;;;4936381;29;20491;-45
2022/05/27 13:15:20;;;;;;;17.27;4.32;;;17.40;93.80;;;;;;4866337;29;20045;-45
2022/05/27 13:17:51;;;;;;;13.48;3.97;;;17.30;94.10;;;;;;4855380;29;20088;-46
2022/05/27 13:20:18;;;;;;;17.33;4.88;;;17.10;94.50;;;;;;4860826;29;20061;-47
2022/05/27 13:23:03;;;;;;;16.15;4.68;;;16.90;93.90;;;;;;4866076;29;20061;-46
2022/05/27 13:25:39;;;;;;;13.00;3.17;;;16.90;94.60;;;;;;4863818;29;20135;-45
2022/05/27 13:28:11;;;;;;;13.38;3.63;;;16.80;94.60;;;;;;4856462;29;20491;-46
2022/05/27 13:30:56;;;;;;;13.73;3.93;;;16.70;94.20;;;;;;4856091;29;20161;-44
2022/05/27 13:33:48;;;;;;;12.32;3.92;;;16.60;94.20;;;;;;4845119;29;20061;-47
2022/05/27 13:36:18;;;;;;;14.73;3.70;;;16.70;94.40;;;;;;4844770;29;20052;-46
2022/05/27 13:38:53;;;;;;;19.45;4.35;;;16.80;94.10;;;;;;4864611;29;20127;-45
2022/05/27 13:41:20;;;;;;;18.13;3.97;;;17.00;95.70;;;;;;4865436;29;20104;-46
2022/05/27 13:43:51;;;;;;;13.88;4.05;;;17.10;95.00;;;;;;4868403;29;20416;-47
2022/05/27 13:46:38;;;;;;;15.57;3.85;;;17.10;94.80;;;;;;4906034;28;20058;-47
2022/05/27 13:49:19;;;;;;;14.27;3.33;;;17.00;95.10;;;;;;4937087;28;20048;-48